Time;durP1;ratioP1;P1;durP2;ratioP2;P2;SDS_P1;SDS_P2;PMS_P1;PMS_P2;Temp;Humidity;BMP_temperature;BMP_pressure;BME280_temperature;BME280_humidity;BME280_pressure;Samples;Min_cycle;Max_cycle;Signal;HPM_P1;HPM_P2
2022/01/28 00:02:06;;;;;;;26.95;2.65;;;5.40;99.90;;;;;;6157872;23;20056;-80
2022/01/28 00:04:32;;;;;;;11.38;2.03;;;5.40;99.90;;;;;;6158125;23;20012;-80
2022/01/28 00:06:57;;;;;;;22.88;3.05;;;5.50;99.90;;;;;;6156662;23;20201;-81
2022/01/28 00:09:23;;;;;;;25.98;3.13;;;5.40;99.90;;;;;;6174953;23;20021;-81
2022/01/28 00:11:49;;;;;;;23.08;3.65;;;5.40;99.90;;;;;;6157399;23;20029;-80
2022/01/28 00:38:34;;;;;;;24.98;2.35;;;5.20;99.90;;;;;;6127172;23;20024;-80
2022/01/28 00:41:00;;;;;;;25.67;2.67;;;5.10;99.90;;;;;;6126827;23;20013;-81
2022/01/28 00:43:25;;;;;;;27.77;3.47;;;5.20;99.90;;;;;;6151633;23;20013;-82
2022/01/28 00:45:51;;;;;;;25.75;2.83;;;5.20;99.90;;;;;;6151521;23;20117;-82
2022/01/28 00:48:17;;;;;;;21.05;3.05;;;5.20;99.90;;;;;;6127157;23;20365;-83
2022/01/28 00:50:43;;;;;;;27.65;3.65;;;5.30;99.90;;;;;;6126322;23;20124;-83
2022/01/28 00:53:12;;;;;;;31.35;3.35;;;5.60;99.90;;;;;;6127828;23;20366;-80
2022/01/28 00:55:38;;;;;;;16.92;2.80;;;5.30;99.90;;;;;;6102019;23;20018;-82
2022/01/28 00:58:04;;;;;;;22.63;2.70;;;5.40;99.90;;;;;;6102516;23;20371;-81
2022/01/28 01:00:30;;;;;;;18.27;2.40;;;5.50;99.90;;;;;;6127085;23;20052;-80
2022/01/28 01:02:56;;;;;;;20.80;2.67;;;5.60;99.90;;;;;;6127014;23;20137;-80
2022/01/28 01:05:23;;;;;;;28.23;3.03;;;5.70;99.90;;;;;;6126957;23;20017;-80
2022/01/28 01:07:49;;;;;;;15.10;2.88;;;5.70;99.90;;;;;;6126597;23;20024;-82
2022/01/28 01:10:16;;;;;;;16.38;2.30;;;5.60;99.90;;;;;;6128175;23;20029;-81
2022/01/28 01:12:45;;;;;;;19.27;2.38;;;5.70;99.90;;;;;;6126666;23;20096;-79
2022/01/28 01:15:14;;;;;;;16.88;2.25;;;5.60;99.90;;;;;;6163450;23;20048;-80
2022/01/28 01:17:57;;;;;;;13.82;2.30;;;5.50;99.90;;;;;;6182535;23;20040;-81
2022/01/28 01:23:22;;;;;;;26.50;3.25;;;5.40;99.90;;;;;;6181357;23;20023;-81
2022/01/28 01:25:49;;;;;;;18.92;2.97;;;5.40;99.90;;;;;;6181289;23;20098;-81
2022/01/28 01:28:20;;;;;;;30.20;3.53;;;5.50;99.90;;;;;;6182326;23;20031;-79
2022/01/28 01:30:47;;;;;;;22.67;2.35;;;5.50;99.90;;;;;;6183747;23;20020;-81
2022/01/28 01:33:14;;;;;;;20.10;4.15;;;5.50;99.90;;;;;;6182314;23;20067;-80
2022/01/28 01:35:40;;;;;;;21.98;3.00;;;5.50;99.90;;;;;;6181500;23;20013;-80
2022/01/28 01:38:08;;;;;;;24.77;2.63;;;5.60;99.90;;;;;;6157211;23;20013;-80
2022/01/28 01:40:47;;;;;;;21.77;3.05;;;5.40;99.90;;;;;;6182157;23;20013;-82
2022/01/28 01:43:21;;;;;;;21.90;3.13;;;5.40;99.90;;;;;;6182142;23;20345;-81
2022/01/28 01:53:53;;;;;;;42.42;4.18;;;5.40;99.90;;;;;;6181963;23;20016;-82
2022/01/28 01:56:20;;;;;;;36.47;4.20;;;5.40;99.90;;;;;;6181116;23;20088;-79
2022/01/28 01:58:46;;;;;;;35.33;4.82;;;5.30;99.90;;;;;;6181928;23;20075;-81
2022/01/28 02:01:12;;;;;;;33.00;4.50;;;5.40;99.90;;;;;;6181800;23;20103;-82
2022/01/28 02:03:38;;;;;;;33.42;3.95;;;5.40;99.90;;;;;;6182207;23;20342;-81
2022/01/28 02:06:04;;;;;;;28.33;4.22;;;5.40;99.90;;;;;;6181003;23;20012;-83
2022/01/28 02:08:32;;;;;;;39.25;4.40;;;5.40;99.90;;;;;;6181937;23;20020;-82
2022/01/28 02:10:59;;;;;;;33.90;4.47;;;5.40;99.90;;;;;;6181724;23;20101;-82
2022/01/28 02:13:30;;;;;;;38.67;4.85;;;5.40;99.90;;;;;;6182073;23;20017;-81
2022/01/28 02:15:57;;;;;;;33.03;5.53;;;5.50;99.90;;;;;;6181701;23;20025;-79
2022/01/28 02:18:24;;;;;;;33.83;4.85;;;5.60;99.90;;;;;;6183617;23;20009;-81
2022/01/28 02:20:52;;;;;;;24.50;3.63;;;5.60;99.90;;;;;;6180627;23;20013;-81
2022/01/28 02:23:20;;;;;;;35.78;5.28;;;5.60;99.90;;;;;;6182132;23;20045;-80
2022/01/28 02:25:46;;;;;;;31.98;4.80;;;5.60;99.90;;;;;;6181770;23;20088;-81
2022/01/28 02:28:17;;;;;;;30.65;4.20;;;5.70;99.90;;;;;;6182000;23;20351;-80
2022/01/28 02:30:43;;;;;;;25.23;3.58;;;5.70;99.90;;;;;;6181889;23;20016;-80
2022/01/28 02:33:13;;;;;;;38.95;4.65;;;5.70;99.90;;;;;;6181971;23;20013;-80
2022/01/28 02:35:41;;;;;;;37.13;4.88;;;5.80;99.90;;;;;;6155374;23;20045;-81
2022/01/28 02:38:08;;;;;;;36.45;5.40;;;5.90;99.90;;;;;;6182019;23;20009;-79
2022/01/28 02:40:35;;;;;;;38.70;4.63;;;5.80;99.90;;;;;;6181694;23;20016;-80
2022/01/28 02:44:03;;;;;;;39.30;5.03;;;5.70;99.90;;;;;;6181804;23;20322;-81
2022/01/28 02:45:48;;;;;;;14.13;2.65;;;5.80;99.90;;;;;;6181462;23;20104;-81
2022/01/28 02:48:24;;;;;;;36.85;4.88;;;5.80;99.90;;;;;;6182384;23;20410;-82
2022/01/28 02:53:27;;;;;;;46.03;5.47;;;5.70;99.90;;;;;;6181886;23;20020;-80
2022/01/28 02:56:00;;;;;;;33.58;4.55;;;5.70;99.90;;;;;;6181730;23;20333;-81
2022/01/28 02:58:26;;;;;;;42.20;5.53;;;5.80;99.90;;;;;;6157182;23;20016;-80
2022/01/28 03:00:57;;;;;;;45.97;5.72;;;5.60;99.90;;;;;;6181624;23;20120;-79
2022/01/28 03:03:24;;;;;;;30.80;4.10;;;5.70;99.90;;;;;;6183562;23;20056;-80
2022/01/28 03:05:53;;;;;;;35.38;4.53;;;5.70;99.90;;;;;;6180667;23;20071;-81
2022/01/28 03:08:22;;;;;;;40.05;4.40;;;5.70;99.90;;;;;;6181488;23;20104;-81
2022/01/28 03:16:05;;;;;;;25.52;3.35;;;5.80;99.90;;;;;;6158015;23;20021;-81
2022/01/28 03:18:41;;;;;;;27.13;3.80;;;5.80;99.90;;;;;;6181896;23;20005;-80
2022/01/28 03:21:19;;;;;;;27.95;4.07;;;5.80;99.90;;;;;;6180633;23;20028;-81
2022/01/28 03:23:45;;;;;;;29.80;3.22;;;6.20;99.90;;;;;;6157022;23;20024;-82
2022/01/28 03:26:10;;;;;;;26.27;3.40;;;5.80;99.90;;;;;;6156596;23;20035;-81
2022/01/28 03:28:36;;;;;;;29.27;3.70;;;5.80;99.90;;;;;;6181821;23;20341;-81
2022/01/28 03:31:02;;;;;;;24.15;3.90;;;5.70;99.90;;;;;;6156473;23;20438;-82
2022/01/28 03:33:27;;;;;;;23.80;3.53;;;5.60;99.90;;;;;;6182338;23;20013;-81
2022/01/28 03:35:53;;;;;;;33.75;4.00;;;5.60;99.90;;;;;;6182524;23;20020;-81
2022/01/28 03:38:18;;;;;;;20.85;2.47;;;6.20;99.90;;;;;;6158730;23;20013;-81
2022/01/28 03:40:45;;;;;;;21.85;2.60;;;5.70;99.90;;;;;;6183232;23;20020;-81
2022/01/28 03:43:11;;;;;;;24.15;3.50;;;5.80;99.90;;;;;;6182813;23;20009;-82
2022/01/28 03:45:37;;;;;;;28.33;3.97;;;5.80;99.90;;;;;;6183258;23;20410;-81
2022/01/28 03:48:03;;;;;;;33.90;3.67;;;5.80;99.90;;;;;;6183278;23;20441;-81
2022/01/28 03:50:32;;;;;;;26.10;3.20;;;5.80;99.90;;;;;;6183326;23;20108;-81
2022/01/28 03:52:59;;;;;;;17.75;3.50;;;5.70;99.90;;;;;;6183000;23;20013;-82
2022/01/28 03:55:24;;;;;;;26.00;3.80;;;5.80;99.90;;;;;;6182828;23;20075;-82
2022/01/28 03:57:50;;;;;;;23.05;3.25;;;5.70;99.90;;;;;;6158254;23;20049;-81
2022/01/28 04:00:16;;;;;;;25.02;3.45;;;5.70;99.90;;;;;;6183255;23;20441;-81
2022/01/28 04:02:44;;;;;;;26.45;4.68;;;5.70;99.90;;;;;;6157651;23;20107;-82
2022/01/28 04:13:17;;;;;;;27.33;3.67;;;5.60;99.90;;;;;;6183171;23;20023;-82
2022/01/28 04:16:15;;;;;;;31.17;3.90;;;5.60;99.90;;;;;;6182883;23;20028;-80
2022/01/28 04:18:37;;;;;;;25.83;3.55;;;5.40;99.90;;;;;;6183004;23;20020;-80
2022/01/28 04:21:02;;;;;;;32.20;4.20;;;5.50;99.90;;;;;;6182252;23;20372;-81
2022/01/28 04:23:28;;;;;;;28.10;4.05;;;5.50;99.90;;;;;;6183344;23;20119;-81
2022/01/28 04:25:54;;;;;;;27.48;4.78;;;5.50;99.90;;;;;;6157957;23;20013;-81
2022/01/28 04:28:19;;;;;;;24.27;3.63;;;5.40;99.90;;;;;;6183124;23;20017;-81
2022/01/28 04:30:45;;;;;;;27.02;3.20;;;5.40;99.90;;;;;;6158308;23;20044;-81
2022/01/28 04:33:11;;;;;;;30.20;3.67;;;5.60;99.90;;;;;;6183004;23;20385;-81
2022/01/28 04:35:36;;;;;;;43.30;4.72;;;5.60;99.90;;;;;;6156745;23;20093;-80
2022/01/28 04:40:32;;;;;;;33.28;4.45;;;5.50;99.90;;;;;;6182911;23;20079;-80
2022/01/28 04:43:07;;;;;;;41.38;5.47;;;5.30;99.90;;;;;;6183085;23;20067;-82
2022/01/28 04:48:20;;;;;;;37.20;4.65;;;5.30;99.90;;;;;;6182910;23;20078;-82
2022/01/28 04:58:46;;;;;;;39.60;4.65;;;5.30;99.90;;;;;;6183006;23;20020;-82
2022/01/28 05:07:26;;;;;;;27.42;3.83;;;5.30;99.90;;;;;;6126106;23;20049;-81
2022/01/28 05:09:45;;;;;;;23.58;3.95;;;5.40;99.90;;;;;;6126466;23;20101;-81
2022/01/28 05:28:39;;;;;;;31.52;3.97;;;5.20;99.90;;;;;;6011757;23;20051;-80
2022/01/28 05:31:04;;;;;;;36.25;4.22;;;5.10;99.90;;;;;;6011341;23;20015;-81
2022/01/28 05:33:30;;;;;;;23.55;3.63;;;5.20;99.90;;;;;;6011750;23;20511;-81
2022/01/28 05:35:56;;;;;;;28.08;3.55;;;5.40;99.90;;;;;;5987393;23;20058;-82
2022/01/28 05:38:21;;;;;;;35.15;4.63;;;5.20;99.90;;;;;;6011305;23;20060;-81
2022/01/28 05:40:47;;;;;;;31.23;3.90;;;5.20;99.90;;;;;;6011458;23;20011;-80
2022/01/28 05:43:13;;;;;;;30.40;3.63;;;5.20;99.90;;;;;;6019553;23;20428;-81
2022/01/28 05:45:40;;;;;;;26.85;3.20;;;5.20;99.90;;;;;;6039839;23;20359;-80
2022/01/28 05:48:06;;;;;;;30.88;3.65;;;5.20;99.90;;;;;;6040232;23;20023;-81
2022/01/28 05:50:32;;;;;;;25.73;3.88;;;5.20;99.90;;;;;;6044394;23;20030;-80
2022/01/28 05:52:57;;;;;;;34.13;4.75;;;5.20;99.90;;;;;;6068624;23;20095;-81
2022/01/28 05:55:24;;;;;;;33.42;4.22;;;5.20;99.90;;;;;;6067497;23;20014;-81
2022/01/28 05:57:50;;;;;;;28.95;3.63;;;5.20;99.90;;;;;;6068854;23;20451;-82
2022/01/28 06:00:17;;;;;;;30.25;4.28;;;5.20;99.90;;;;;;6068146;23;20018;-82
2022/01/28 06:02:45;;;;;;;28.17;4.13;;;5.30;99.90;;;;;;6068549;23;20162;-81
2022/01/28 06:05:11;;;;;;;29.50;3.78;;;5.20;99.90;;;;;;6102506;23;20017;-82
2022/01/28 06:07:41;;;;;;;23.45;3.80;;;5.60;99.90;;;;;;6181471;23;20120;-81
2022/01/28 06:10:12;;;;;;;29.15;4.22;;;5.40;99.90;;;;;;6184523;23;20349;-81
2022/01/28 06:12:40;;;;;;;34.65;4.68;;;5.40;99.90;;;;;;6135989;23;20048;-80
2022/01/28 06:15:05;;;;;;;28.77;4.38;;;5.40;99.90;;;;;;6132849;23;20020;-82
2022/01/28 06:17:31;;;;;;;29.42;3.88;;;5.40;99.90;;;;;;6157006;23;20013;-82
2022/01/28 06:19:57;;;;;;;33.13;4.97;;;5.50;99.90;;;;;;6184408;23;20104;-81
2022/01/28 06:22:22;;;;;;;22.08;3.03;;;5.50;99.90;;;;;;6156498;23;20072;-80
2022/01/28 06:24:48;;;;;;;30.60;4.38;;;5.60;99.90;;;;;;6156988;23;20333;-82
2022/01/28 06:27:13;;;;;;;29.60;3.95;;;5.60;99.90;;;;;;6156981;23;20012;-82
2022/01/28 06:29:39;;;;;;;31.92;5.22;;;5.60;99.90;;;;;;6157138;23;20045;-81
2022/01/28 06:32:05;;;;;;;28.65;4.32;;;5.50;99.90;;;;;;6157284;23;20055;-80
2022/01/28 06:34:32;;;;;;;34.72;3.60;;;5.50;99.90;;;;;;6157059;23;20020;-82
2022/01/28 06:36:59;;;;;;;31.75;3.80;;;5.50;99.90;;;;;;6156223;23;20333;-83
2022/01/28 06:39:24;;;;;;;36.10;4.68;;;5.70;99.90;;;;;;6157368;23;20020;-81
2022/01/28 06:41:50;;;;;;;28.35;4.15;;;5.40;99.90;;;;;;6156673;23;20017;-81
2022/01/28 06:44:16;;;;;;;37.55;4.38;;;5.40;99.90;;;;;;6132957;23;20021;-81
2022/01/28 06:46:41;;;;;;;37.65;5.43;;;5.30;99.90;;;;;;6132245;23;20021;-81
2022/01/28 06:49:07;;;;;;;37.25;5.13;;;5.30;99.90;;;;;;6157228;23;20009;-83
2022/01/28 06:51:34;;;;;;;37.47;4.35;;;5.20;99.90;;;;;;6156131;23;20017;-81
2022/01/28 06:54:01;;;;;;;43.50;5.30;;;5.30;99.90;;;;;;6157017;23;20016;-81
2022/01/28 06:56:27;;;;;;;35.58;4.78;;;5.20;99.90;;;;;;6131731;23;20068;-82
2022/01/28 06:58:52;;;;;;;45.67;5.43;;;5.10;99.90;;;;;;6157177;23;20083;-82
2022/01/28 07:01:18;;;;;;;34.08;5.10;;;5.10;99.90;;;;;;6156788;23;20472;-80
2022/01/28 07:03:43;;;;;;;33.40;5.45;;;5.00;99.90;;;;;;6132976;23;20092;-81
2022/01/28 07:06:09;;;;;;;44.35;5.30;;;5.00;99.90;;;;;;6180910;23;20016;-82
2022/01/28 07:08:34;;;;;;;45.55;5.63;;;5.00;99.90;;;;;;6162839;23;20468;-82
2022/01/28 07:11:01;;;;;;;33.92;5.45;;;4.90;99.90;;;;;;6183583;23;20107;-81
2022/01/28 07:13:27;;;;;;;36.22;5.22;;;5.30;99.90;;;;;;6158350;23;20025;-82
2022/01/28 07:15:52;;;;;;;38.25;4.85;;;4.90;99.90;;;;;;6183346;23;20016;-82
2022/01/28 07:18:18;;;;;;;29.17;5.15;;;4.90;99.90;;;;;;6159041;23;20009;-81
2022/01/28 07:20:44;;;;;;;34.72;5.30;;;4.80;99.90;;;;;;6182536;23;20013;-82
2022/01/28 07:23:09;;;;;;;40.00;5.03;;;4.80;99.90;;;;;;6183795;23;20072;-82
2022/01/28 07:25:35;;;;;;;39.58;5.05;;;4.80;99.90;;;;;;6157894;23;20013;-82
2022/01/28 07:28:03;;;;;;;47.65;5.28;;;4.80;99.90;;;;;;6183724;23;20100;-82
2022/01/28 07:30:28;;;;;;;28.50;4.95;;;4.80;99.90;;;;;;6158867;23;20421;-82
2022/01/28 07:32:54;;;;;;;42.97;4.40;;;4.80;99.90;;;;;;6183150;23;20013;-81
2022/01/28 07:35:20;;;;;;;34.85;4.57;;;4.80;99.90;;;;;;6183406;23;20028;-80
2022/01/28 07:37:46;;;;;;;34.00;4.65;;;4.80;99.90;;;;;;6182661;23;20071;-82
2022/01/28 07:40:12;;;;;;;41.65;6.22;;;4.80;99.90;;;;;;6158794;23;20334;-81
2022/01/28 07:42:38;;;;;;;40.08;5.20;;;4.70;99.90;;;;;;6183905;23;20031;-81
2022/01/28 07:45:05;;;;;;;32.10;5.63;;;4.80;99.90;;;;;;6186445;23;20088;-83
2022/01/28 07:47:31;;;;;;;59.78;6.13;;;4.70;99.90;;;;;;6210490;23;20115;-81
2022/01/28 07:49:57;;;;;;;39.13;4.78;;;4.70;99.90;;;;;;6183830;23;20448;-82
2022/01/28 07:52:22;;;;;;;39.40;4.97;;;4.80;99.90;;;;;;6184352;23;20115;-81
2022/01/28 07:54:49;;;;;;;28.80;4.25;;;4.80;99.90;;;;;;6158055;23;20147;-82
2022/01/28 07:57:35;;;;;;;38.95;4.65;;;4.80;99.90;;;;;;6157924;23;20341;-82
2022/01/28 08:00:03;;;;;;;35.20;4.22;;;4.80;99.90;;;;;;6183509;23;20013;-82
2022/01/28 08:02:28;;;;;;;34.03;3.85;;;4.90;99.90;;;;;;6158706;23;20083;-82
2022/01/28 08:04:55;;;;;;;30.92;3.92;;;4.90;99.90;;;;;;6183622;23;20013;-82
2022/01/28 08:07:22;;;;;;;29.80;3.60;;;4.90;99.90;;;;;;6182199;23;20091;-82
2022/01/28 08:09:47;;;;;;;37.35;4.55;;;4.90;99.90;;;;;;6182995;23;20404;-83
2022/01/28 08:12:13;;;;;;;25.90;4.13;;;4.90;99.90;;;;;;6158067;23;20056;-81
2022/01/28 08:14:39;;;;;;;42.30;4.80;;;5.00;99.90;;;;;;6183147;23;20406;-80
2022/01/28 08:17:05;;;;;;;29.70;3.78;;;4.90;99.90;;;;;;6183308;23;20020;-81
2022/01/28 08:19:30;;;;;;;36.67;4.35;;;4.90;99.90;;;;;;6182697;23;20017;-82
2022/01/28 08:21:56;;;;;;;35.83;4.45;;;5.00;99.90;;;;;;6181738;23;20016;-81
2022/01/28 08:24:22;;;;;;;37.95;4.55;;;5.00;99.90;;;;;;6183282;23;20097;-81
2022/01/28 08:26:47;;;;;;;31.60;3.90;;;5.00;99.90;;;;;;6158010;23;20023;-81
2022/01/28 08:29:13;;;;;;;33.85;4.45;;;5.00;99.90;;;;;;6183229;23;20017;-81
2022/01/28 08:31:39;;;;;;;32.25;4.20;;;5.00;99.90;;;;;;6158246;23;20009;-83
2022/01/28 08:34:05;;;;;;;47.42;4.55;;;5.20;99.90;;;;;;6183194;23;20513;-80
2022/01/28 08:36:31;;;;;;;35.92;3.95;;;5.30;99.90;;;;;;6182021;23;20009;-80
2022/01/28 08:38:57;;;;;;;40.90;4.38;;;5.10;99.90;;;;;;6183208;23;20020;-81
2022/01/28 08:41:23;;;;;;;33.17;4.68;;;5.00;99.90;;;;;;6182678;23;20017;-80
2022/01/28 08:43:49;;;;;;;32.15;4.50;;;5.00;99.90;;;;;;6183065;23;20013;-82
2022/01/28 08:46:15;;;;;;;37.40;4.85;;;5.00;99.90;;;;;;6182829;23;20048;-80
2022/01/28 08:48:41;;;;;;;32.67;4.65;;;4.90;99.90;;;;;;6182868;23;20385;-81
2022/01/28 08:51:07;;;;;;;29.73;4.25;;;4.90;99.90;;;;;;6181962;23;20012;-82
2022/01/28 08:53:33;;;;;;;45.92;4.78;;;4.90;99.90;;;;;;6182809;23;20385;-81
2022/01/28 08:55:59;;;;;;;40.25;5.05;;;4.90;99.90;;;;;;6182466;23;20433;-81
2022/01/28 08:58:25;;;;;;;32.80;4.20;;;5.30;99.90;;;;;;6183717;23;20044;-80
2022/01/28 09:00:51;;;;;;;27.85;4.30;;;4.90;99.90;;;;;;6160292;23;20394;-81
2022/01/28 09:03:19;;;;;;;26.23;4.35;;;4.80;99.90;;;;;;6184058;23;20024;-81
2022/01/28 09:05:45;;;;;;;35.53;4.70;;;4.90;99.90;;;;;;6182666;23;20071;-80
2022/01/28 09:08:12;;;;;;;29.88;4.47;;;5.00;99.90;;;;;;6183511;23;20024;-81
2022/01/28 09:10:45;;;;;;;33.03;4.75;;;5.00;99.90;;;;;;6158603;23;20016;-82
2022/01/28 09:13:23;;;;;;;36.63;4.45;;;5.00;99.90;;;;;;6134893;23;20032;-82
2022/01/28 09:15:49;;;;;;;35.22;4.18;;;5.10;99.90;;;;;;6157761;23;20127;-82
2022/01/28 09:18:16;;;;;;;37.95;3.80;;;5.20;99.90;;;;;;6158170;23;20341;-82
2022/01/28 09:20:42;;;;;;;32.20;4.15;;;5.30;99.90;;;;;;6156627;23;20381;-83
2022/01/28 09:23:09;;;;;;;30.05;4.70;;;5.40;99.90;;;;;;6133539;23;20016;-81
2022/01/28 09:26:11;;;;;;;35.72;4.50;;;5.50;99.90;;;;;;6132980;23;20055;-81
2022/01/28 09:28:37;;;;;;;38.72;4.68;;;5.60;99.90;;;;;;6157870;23;20056;-82
2022/01/28 09:31:04;;;;;;;32.78;4.50;;;5.60;99.90;;;;;;6157799;23;20461;-81
2022/01/28 09:33:29;;;;;;;28.95;3.85;;;5.70;99.90;;;;;;6157746;23;20139;-81
2022/01/28 09:35:55;;;;;;;35.40;5.05;;;5.70;99.90;;;;;;6156910;23;20104;-81
2022/01/28 09:38:20;;;;;;;40.10;4.82;;;5.80;99.90;;;;;;6133385;23;20012;-81
2022/01/28 09:40:47;;;;;;;44.95;5.47;;;5.80;99.90;;;;;;6157324;23;20088;-81
2022/01/28 09:43:13;;;;;;;46.97;5.70;;;5.90;99.90;;;;;;6157629;23;20013;-81
2022/01/28 09:45:39;;;;;;;35.85;4.78;;;6.00;99.90;;;;;;6132977;23;20342;-81
2022/01/28 09:48:05;;;;;;;45.03;5.05;;;6.00;99.90;;;;;;6157518;23;20013;-82
2022/01/28 09:50:33;;;;;;;48.97;5.35;;;6.20;99.90;;;;;;6157508;23;20461;-81
2022/01/28 09:53:02;;;;;;;46.92;5.70;;;6.10;99.90;;;;;;6157636;23;20012;-82
2022/01/28 09:55:28;;;;;;;30.90;4.72;;;6.20;99.90;;;;;;6157110;23;20013;-83
2022/01/28 09:58:01;;;;;;;33.33;4.50;;;6.50;99.90;;;;;;6157155;23;20013;-81
2022/01/28 10:00:29;;;;;;;38.40;4.70;;;6.30;99.90;;;;;;6157804;23;20084;-81
2022/01/28 10:03:10;;;;;;;48.22;5.57;;;6.40;99.90;;;;;;6131980;23;20009;-82
2022/01/28 10:05:44;;;;;;;43.15;5.43;;;6.40;99.90;;;;;;6156620;23;20409;-82
2022/01/28 10:08:17;;;;;;;29.15;4.50;;;6.50;99.90;;;;;;6156978;23;20083;-81
2022/01/28 10:10:49;;;;;;;39.00;4.60;;;6.50;99.90;;;;;;6132493;23;20017;-82
2022/01/28 10:13:20;;;;;;;30.77;4.32;;;6.60;99.90;;;;;;6157783;23;20059;-82
2022/01/28 10:16:00;;;;;;;42.30;5.22;;;6.70;99.90;;;;;;6132486;23;20017;-82
2022/01/28 10:18:39;;;;;;;52.05;5.45;;;6.70;99.90;;;;;;6157531;23;20030;-83
2022/01/28 10:21:16;;;;;;;46.58;5.50;;;6.70;99.90;;;;;;6156686;23;20044;-82
2022/01/28 10:23:43;;;;;;;38.38;4.93;;;6.70;99.90;;;;;;6157254;23;20017;-82
2022/01/28 10:26:08;;;;;;;39.70;5.38;;;6.70;99.90;;;;;;6157185;23;20016;-82
2022/01/28 10:28:35;;;;;;;41.88;5.47;;;6.70;99.90;;;;;;6133349;23;20017;-82
2022/01/28 10:31:03;;;;;;;42.65;6.05;;;6.70;99.90;;;;;;6132685;23;20036;-82
2022/01/28 10:33:30;;;;;;;40.22;5.40;;;6.70;99.90;;;;;;6157364;23;20013;-82
2022/01/28 10:35:58;;;;;;;27.55;3.72;;;6.80;99.90;;;;;;6156557;23;20473;-82
2022/01/28 10:38:31;;;;;;;41.80;4.93;;;6.70;99.90;;;;;;6157883;23;20039;-82
2022/01/28 10:41:18;;;;;;;30.90;4.53;;;6.80;99.90;;;;;;6133394;23;20087;-81
2022/01/28 10:43:52;;;;;;;34.63;4.90;;;6.80;99.90;;;;;;6157352;23;20329;-81
2022/01/28 10:46:26;;;;;;;39.85;5.38;;;6.90;99.90;;;;;;6156920;23;20081;-82
2022/01/28 10:49:01;;;;;;;34.10;4.63;;;6.90;99.90;;;;;;6184117;23;20331;-82
2022/01/28 10:52:22;;;;;;;39.25;5.30;;;6.90;99.90;;;;;;6156427;23;20075;-82
2022/01/28 10:54:56;;;;;;;35.78;4.57;;;7.00;99.90;;;;;;6023774;23;20109;-81
2022/01/28 10:57:22;;;;;;;39.03;4.37;;;7.00;99.90;;;;;;6044218;23;20014;-82
2022/01/28 10:59:48;;;;;;;23.02;3.35;;;7.10;99.90;;;;;;6044501;23;20033;-81
2022/01/28 11:02:15;;;;;;;34.22;4.90;;;7.10;99.90;;;;;;6068236;23;20010;-82
2022/01/28 11:04:43;;;;;;;37.58;4.72;;;7.10;99.90;;;;;;6044150;23;20129;-81
2022/01/28 11:07:11;;;;;;;36.58;4.78;;;7.10;99.90;;;;;;6067115;23;20072;-81
2022/01/28 11:09:40;;;;;;;36.63;4.15;;;7.10;99.90;;;;;;6044217;23;20061;-81
2022/01/28 11:12:07;;;;;;;31.00;4.43;;;7.10;99.90;;;;;;6068002;23;20053;-82
2022/01/28 11:14:33;;;;;;;30.38;4.55;;;7.30;99.90;;;;;;6044312;23;20068;-81
2022/01/28 11:16:59;;;;;;;32.72;4.28;;;7.20;99.90;;;;;;6068052;23;20127;-81
2022/01/28 11:19:28;;;;;;;35.33;5.25;;;7.30;99.90;;;;;;6068316;23;20018;-81
2022/01/28 11:22:36;;;;;;;32.45;4.80;;;7.30;99.90;;;;;;6040673;23;20014;-81
2022/01/28 11:25:25;;;;;;;32.50;4.07;;;7.20;99.90;;;;;;6067238;23;20502;-80
2022/01/28 11:27:52;;;;;;;30.77;4.28;;;7.20;99.90;;;;;;6042034;23;20021;-81
2022/01/28 11:30:28;;;;;;;36.35;5.07;;;7.10;99.90;;;;;;6110287;23;20028;-83
2022/01/28 11:33:00;;;;;;;32.63;4.70;;;7.00;99.90;;;;;;6127403;23;20017;-80
2022/01/28 11:35:34;;;;;;;36.40;4.40;;;7.00;99.90;;;;;;6126882;23;20117;-80
2022/01/28 11:38:24;;;;;;;31.15;4.85;;;7.00;99.90;;;;;;6126772;23;20426;-84
2022/01/28 11:40:56;;;;;;;35.55;4.47;;;7.00;99.90;;;;;;6150866;23;20409;-83
2022/01/28 11:43:24;;;;;;;31.08;4.72;;;7.30;99.90;;;;;;6127672;23;20036;-80
2022/01/28 11:46:09;;;;;;;33.33;4.10;;;7.40;99.90;;;;;;6126624;23;20024;-80
2022/01/28 11:48:55;;;;;;;36.33;4.45;;;7.40;99.90;;;;;;6127492;23;20096;-78
2022/01/28 11:51:38;;;;;;;31.85;4.10;;;7.90;99.90;;;;;;6101658;23;20067;-81
2022/01/28 11:54:08;;;;;;;25.23;3.50;;;8.00;99.90;;;;;;6080860;23;20018;-80
2022/01/28 11:56:38;;;;;;;29.05;4.05;;;8.20;99.90;;;;;;6154904;23;20013;-81
2022/01/28 11:59:05;;;;;;;21.67;3.53;;;8.20;99.90;;;;;;6129334;23;20354;-87
2022/01/28 12:01:39;;;;;;;31.85;4.25;;;8.10;99.90;;;;;;6128194;23;20060;-82
2022/01/28 12:04:34;;;;;;;22.25;3.25;;;8.10;99.90;;;;;;6127544;23;20521;-78
2022/01/28 12:07:04;;;;;;;34.40;3.80;;;7.90;99.90;;;;;;6125329;23;20021;-78
2022/01/28 12:09:31;;;;;;;23.73;4.35;;;8.00;99.90;;;;;;6156669;23;20013;-80
2022/01/28 12:11:58;;;;;;;30.38;4.03;;;7.90;99.90;;;;;;6181319;23;20028;-80
2022/01/28 12:14:55;;;;;;;21.42;3.58;;;7.80;99.90;;;;;;6181600;23;20021;-78
2022/01/28 12:17:30;;;;;;;31.73;4.28;;;8.00;99.90;;;;;;6181763;23;20088;-77
2022/01/28 12:20:24;;;;;;;29.48;3.83;;;8.10;99.90;;;;;;6180912;23;20400;-78
2022/01/28 12:23:11;;;;;;;33.45;4.28;;;8.10;99.90;;;;;;6205625;23;20088;-80
2022/01/28 12:25:39;;;;;;;32.70;3.95;;;7.80;99.90;;;;;;6182015;23;20096;-78
2022/01/28 12:28:17;;;;;;;25.33;3.75;;;8.00;99.90;;;;;;6182009;23;20091;-76
2022/01/28 12:30:46;;;;;;;26.40;3.80;;;8.10;99.90;;;;;;6181765;23;20055;-79
2022/01/28 12:36:49;;;;;;;31.63;4.00;;;7.80;99.90;;;;;;6008104;23;20031;-85
2022/01/28 12:39:31;;;;;;;28.88;3.72;;;7.70;99.90;;;;;;5984105;23;20024;-81
2022/01/28 12:57:39;;;;;;;25.52;3.70;;;7.90;99.90;;;;;;6007943;23;20066;-85
2022/01/28 14:09:09;;;;;;;24.95;3.30;;;7.70;99.90;;;;;;6214347;22;20024;-80
2022/01/28 14:12:03;;;;;;;25.08;3.05;;;8.10;99.90;;;;;;6187293;23;20475;-82
2022/01/28 14:14:51;;;;;;;21.73;3.45;;;7.60;99.90;;;;;;6186768;23;20059;-80
2022/01/28 14:18:18;;;;;;;27.23;3.30;;;6.90;99.90;;;;;;6184440;23;20107;-81
2022/01/28 14:24:14;;;;;;;27.42;2.85;;;7.60;99.90;;;;;;6125991;23;19913;-80
2022/01/28 14:26:42;;;;;;;20.85;2.92;;;7.60;99.90;;;;;;6150683;23;20862;-80
2022/01/28 14:31:47;;;;;;;25.05;3.42;;;7.70;99.90;;;;;;6126276;23;20092;-80
2022/01/28 14:34:17;;;;;;;28.67;3.60;;;7.50;99.90;;;;;;6149872;23;20170;-79
2022/01/28 14:36:46;;;;;;;23.52;3.25;;;7.50;99.90;;;;;;6098416;23;20013;-81
2022/01/28 14:39:14;;;;;;;20.52;3.03;;;7.50;99.90;;;;;;6149188;23;20020;-79
2022/01/28 14:41:40;;;;;;;24.58;3.05;;;7.60;99.90;;;;;;6148164;23;20014;-80
2022/01/28 14:44:06;;;;;;;23.65;2.97;;;7.50;99.90;;;;;;6124398;23;20031;-81
2022/01/28 14:46:33;;;;;;;24.42;3.47;;;7.40;99.90;;;;;;6123807;23;20013;-81
2022/01/28 14:49:04;;;;;;;24.25;2.95;;;7.40;99.90;;;;;;6124289;23;20092;-81
2022/01/28 14:55:40;;;;;;;24.20;2.85;;;7.20;99.90;;;;;;6090101;23;20026;-77
2022/01/28 14:58:12;;;;;;;16.27;2.47;;;7.10;99.90;;;;;;6022274;23;20025;-82
2022/01/28 15:09:22;;;;;;;21.90;2.53;;;7.10;99.90;;;;;;5781090;24;20065;-83
2022/01/28 15:38:23;;;;;;;22.38;3.47;;;6.60;99.90;;;;;;6247988;23;20093;-82
2022/01/28 15:40:49;;;;;;;20.58;2.38;;;6.30;99.90;;;;;;6133904;23;20107;-83
2022/01/28 15:43:19;;;;;;;18.80;2.47;;;6.50;99.90;;;;;;6133148;23;20077;-82
2022/01/28 15:45:51;;;;;;;26.75;2.95;;;6.50;99.90;;;;;;6110094;23;20013;-81
2022/01/28 15:48:28;;;;;;;16.13;2.78;;;6.50;99.90;;;;;;6134443;23;20147;-81
2022/01/28 15:51:17;;;;;;;19.88;3.00;;;6.40;99.90;;;;;;6132007;23;20020;-80
2022/01/28 15:53:46;;;;;;;26.58;2.75;;;6.30;99.90;;;;;;6157967;23;20100;-81
2022/01/28 15:56:18;;;;;;;21.33;2.65;;;6.80;99.90;;;;;;6133712;23;20013;-84
2022/01/28 15:59:08;;;;;;;21.85;2.38;;;6.20;99.90;;;;;;6134423;23;20048;-83
2022/01/28 16:01:34;;;;;;;27.50;3.00;;;6.20;99.90;;;;;;6108380;23;20446;-82
2022/01/28 16:04:03;;;;;;;21.98;3.03;;;7.10;99.90;;;;;;6108887;23;20021;-81
2022/01/28 16:06:30;;;;;;;23.65;3.10;;;6.70;99.90;;;;;;6093207;23;20033;-81
2022/01/28 16:08:58;;;;;;;22.05;3.38;;;6.10;99.90;;;;;;6129697;23;20020;-85
2022/01/28 16:11:30;;;;;;;23.95;2.45;;;6.80;99.90;;;;;;6081259;23;20073;-81
2022/01/28 16:14:02;;;;;;;22.10;2.95;;;6.80;99.90;;;;;;6081523;23;20076;-80
2022/01/28 16:19:12;;;;;;;26.60;3.28;;;6.00;99.90;;;;;;6221050;23;20016;-79
2022/01/28 16:21:38;;;;;;;29.38;3.75;;;5.90;99.90;;;;;;6221699;23;20009;-80
2022/01/28 16:24:04;;;;;;;22.27;3.17;;;5.90;99.90;;;;;;6219851;23;20369;-80
2022/01/28 16:26:31;;;;;;;23.85;2.88;;;5.80;99.90;;;;;;6214418;23;20066;-81
2022/01/28 16:28:58;;;;;;;27.65;2.65;;;6.00;99.90;;;;;;6188740;23;20021;-84
2022/01/28 16:31:26;;;;;;;22.25;3.03;;;5.80;99.90;;;;;;6215820;23;20025;-84
2022/01/28 16:33:52;;;;;;;24.50;2.90;;;5.70;99.90;;;;;;6215338;23;20017;-83
2022/01/28 16:36:18;;;;;;;25.17;3.40;;;5.70;99.90;;;;;;6213914;23;20016;-84
2022/01/28 16:38:43;;;;;;;16.42;2.67;;;5.90;99.90;;;;;;6188182;23;20421;-83
2022/01/28 16:41:11;;;;;;;19.35;2.78;;;5.60;99.90;;;;;;6214167;23;20317;-83
2022/01/28 16:43:46;;;;;;;24.70;2.70;;;5.60;99.90;;;;;;6214759;23;20031;-85